Time;durP1;ratioP1;P1;durP2;ratioP2;P2;SDS_P1;SDS_P2;PMS_P1;PMS_P2;Temp;Humidity;BMP_temperature;BMP_pressure;BME280_temperature;BME280_humidity;BME280_pressure;Samples;Min_cycle;Max_cycle;Signal;HPM_P1;HPM_P2
2023/09/19 00:00:48;;;;;;;14.13;3.53;;;36.70;42.90;;;;;;5055460;28;20029;-65
2023/09/19 00:03:15;;;;;;;21.63;3.80;;;36.60;43.70;;;;;;5072908;28;20124;-63
2023/09/19 00:05:45;;;;;;;14.32;3.40;;;36.60;42.40;;;;;;5071748;28;20040;-63
2023/09/19 00:08:13;;;;;;;12.00;3.20;;;36.60;41.60;;;;;;5072306;28;20051;-65
2023/09/19 00:10:41;;;;;;;24.23;2.95;;;36.70;42.30;;;;;;5071377;28;20020;-64
2023/09/19 00:13:09;;;;;;;23.70;2.78;;;36.50;41.80;;;;;;5073676;28;20011;-65
2023/09/19 00:15:41;;;;;;;13.25;2.97;;;36.40;41.90;;;;;;5072616;28;20021;-64
2023/09/19 00:18:08;;;;;;;22.80;10.57;;;36.40;41.80;;;;;;5075603;28;20012;-66
2023/09/19 00:20:38;;;;;;;34.85;4.32;;;36.40;42.00;;;;;;5074886;28;20015;-64
2023/09/19 00:23:08;;;;;;;16.15;3.47;;;36.30;41.90;;;;;;5074621;28;20017;-63
2023/09/19 00:25:37;;;;;;;13.27;3.05;;;36.30;42.40;;;;;;5069256;28;20052;-66
2023/09/19 00:28:06;;;;;;;17.23;3.05;;;36.30;42.50;;;;;;5068808;28;20465;-64
2023/09/19 00:30:33;;;;;;;17.13;3.58;;;36.20;41.80;;;;;;5066767;28;20056;-65
2023/09/19 00:33:01;;;;;;;15.45;2.85;;;36.20;41.80;;;;;;5075243;28;20015;-65
2023/09/19 00:35:30;;;;;;;11.10;3.35;;;36.10;42.20;;;;;;5076232;28;20017;-65
2023/09/19 00:37:57;;;;;;;15.30;3.05;;;36.00;42.10;;;;;;5070771;28;20016;-64
2023/09/19 00:40:23;;;;;;;13.88;2.85;;;36.00;42.30;;;;;;5074118;28;20539;-66
2023/09/19 00:42:50;;;;;;;18.35;3.38;;;35.90;42.10;;;;;;5073947;28;20071;-65
2023/09/19 00:45:17;;;;;;;16.83;3.00;;;35.90;41.80;;;;;;5069782;28;20017;-65
2023/09/19 00:47:51;;;;;;;18.23;3.40;;;35.80;42.00;;;;;;5075482;28;20472;-64
2023/09/19 00:50:21;;;;;;;10.43;3.13;;;35.80;41.60;;;;;;5066366;28;20071;-65
2023/09/19 00:52:50;;;;;;;14.68;2.63;;;35.80;42.20;;;;;;5062801;28;20008;-64
2023/09/19 00:55:19;;;;;;;13.10;2.60;;;35.70;42.00;;;;;;5064087;28;20026;-65
2023/09/19 00:57:47;;;;;;;13.15;2.92;;;35.60;42.30;;;;;;5059680;28;20024;-66
2023/09/19 01:00:20;;;;;;;20.25;3.22;;;35.60;41.80;;;;;;5069806;28;20052;-63
2023/09/19 01:02:47;;;;;;;13.77;2.70;;;35.50;42.00;;;;;;5063425;28;20020;-65
2023/09/19 01:05:17;;;;;;;13.25;3.63;;;35.50;42.30;;;;;;5055773;28;20027;-64
2023/09/19 01:07:44;;;;;;;17.80;2.72;;;35.40;42.20;;;;;;5073946;28;20020;-66
2023/09/19 01:10:14;;;;;;;22.15;3.30;;;35.40;42.10;;;;;;5071599;28;20032;-66
2023/09/19 01:12:56;;;;;;;16.60;3.22;;;35.40;42.40;;;;;;5077157;28;20483;-64
2023/09/19 01:15:49;;;;;;;19.90;3.15;;;35.30;42.30;;;;;;5076644;28;20057;-67
2023/09/19 01:18:38;;;;;;;12.45;3.17;;;35.20;42.50;;;;;;5056956;28;20028;-66
2023/09/19 01:21:23;;;;;;;9.73;3.13;;;35.10;42.50;;;;;;5073476;28;20093;-66
2023/09/19 01:24:39;;;;;;;21.30;2.92;;;35.10;42.90;;;;;;5079190;28;20029;-64
2023/09/19 01:27:20;;;;;;;12.40;2.80;;;34.90;42.30;;;;;;5031347;28;20037;-65
2023/09/19 01:29:48;;;;;;;17.17;3.08;;;34.80;42.70;;;;;;5067763;28;20052;-65
2023/09/19 01:32:22;;;;;;;16.40;2.83;;;34.70;42.70;;;;;;5073254;28;20508;-64
2023/09/19 01:35:05;;;;;;;13.00;2.65;;;34.70;42.70;;;;;;5074435;28;20498;-64
2023/09/19 01:37:35;;;;;;;11.15;2.78;;;34.70;42.70;;;;;;5073705;28;20016;-65
2023/09/19 01:40:17;;;;;;;24.38;3.13;;;34.70;42.80;;;;;;5074262;28;20017;-64
2023/09/19 01:42:55;;;;;;;13.35;2.65;;;34.80;43.00;;;;;;5077709;28;20027;-61
2023/09/19 01:45:42;;;;;;;33.78;3.90;;;35.40;43.00;;;;;;5074970;28;20021;-63
2023/09/19 01:48:24;;;;;;;13.32;2.58;;;35.60;41.90;;;;;;5079458;28;20031;-61
2023/09/19 01:51:07;;;;;;;11.30;5.15;;;35.60;39.40;;;;;;5067022;28;20210;-63
2023/09/19 01:53:55;;;;;;;19.27;9.43;;;35.40;38.30;;;;;;5074977;28;20031;-63
2023/09/19 01:57:04;;;;;;;15.43;1.88;;;35.60;38.60;;;;;;5050236;28;20013;-64
2023/09/19 01:59:41;;;;;;;23.65;2.45;;;35.50;38.30;;;;;;5015652;28;20040;-64
2023/09/19 02:02:08;;;;;;;11.77;1.88;;;35.40;37.40;;;;;;5070207;28;20070;-64
2023/09/19 02:04:35;;;;;;;11.25;1.83;;;35.30;37.90;;;;;;5074073;28;20005;-62
2023/09/19 02:07:02;;;;;;;8.20;2.05;;;35.10;37.30;;;;;;5075983;28;20042;-62
2023/09/19 02:09:29;;;;;;;13.95;2.28;;;34.90;37.30;;;;;;5067826;28;20584;-61
2023/09/19 02:11:56;;;;;;;12.15;2.22;;;34.70;37.60;;;;;;5081885;28;20028;-60
2023/09/19 02:14:22;;;;;;;12.40;2.35;;;34.70;38.20;;;;;;5070859;28;20503;-60
2023/09/19 02:16:50;;;;;;;7.50;2.20;;;34.50;38.20;;;;;;5071801;28;20008;-62
2023/09/19 02:19:17;;;;;;;5.38;2.00;;;34.40;38.40;;;;;;5068371;28;20070;-62
2023/09/19 02:21:43;;;;;;;7.95;2.10;;;34.30;38.70;;;;;;5065648;28;20043;-60
2023/09/19 02:24:09;;;;;;;16.02;2.75;;;34.30;38.80;;;;;;5072427;28;20039;-62
2023/09/19 02:26:36;;;;;;;46.72;9.23;;;34.20;39.00;;;;;;5075264;28;20023;-63
2023/09/19 02:29:04;;;;;;;26.02;15.63;;;34.20;39.10;;;;;;5053977;28;20095;-62
2023/09/19 02:31:31;;;;;;;40.03;16.70;;;34.10;39.50;;;;;;5076402;28;20152;-59
2023/09/19 02:33:58;;;;;;;8.18;1.90;;;33.90;39.50;;;;;;5071557;28;20019;-61
2023/09/19 02:36:24;;;;;;;8.23;2.35;;;33.80;39.90;;;;;;5073888;28;20062;-62
2023/09/19 02:38:50;;;;;;;12.60;2.08;;;33.70;40.30;;;;;;5073847;28;20479;-61
2023/09/19 02:41:17;;;;;;;10.68;2.25;;;33.60;40.40;;;;;;5079679;28;20024;-62
2023/09/19 02:43:43;;;;;;;8.02;2.20;;;33.60;40.70;;;;;;5079295;28;20020;-63
2023/09/19 02:46:11;;;;;;;12.85;2.30;;;33.50;41.20;;;;;;5075130;28;20048;-61
2023/09/19 02:48:38;;;;;;;13.80;3.30;;;33.40;41.00;;;;;;5074728;28;20796;-62
2023/09/19 02:51:04;;;;;;;7.53;2.58;;;33.20;41.70;;;;;;5065656;28;20528;-65
2023/09/19 02:53:32;;;;;;;15.45;2.55;;;33.10;42.50;;;;;;5072259;28;20023;-65
2023/09/19 02:55:59;;;;;;;12.73;2.60;;;33.00;42.40;;;;;;5065160;28;20061;-62
2023/09/19 02:58:27;;;;;;;10.05;3.10;;;32.80;42.60;;;;;;5069703;28;20025;-63
2023/09/19 03:00:55;;;;;;;14.32;2.92;;;32.80;43.00;;;;;;5067035;28;20403;-64
2023/09/19 03:03:21;;;;;;;11.25;2.83;;;32.70;43.30;;;;;;5075712;28;20025;-64
2023/09/19 03:05:48;;;;;;;10.73;2.63;;;32.70;43.40;;;;;;5072697;28;20012;-65
2023/09/19 03:08:17;;;;;;;14.43;2.55;;;32.70;43.50;;;;;;5049644;28;20422;-61
2023/09/19 03:10:47;;;;;;;9.05;2.75;;;32.60;43.70;;;;;;5068335;28;20024;-64
2023/09/19 03:13:15;;;;;;;10.68;2.58;;;32.60;43.90;;;;;;5072406;28;20703;-64
2023/09/19 03:15:46;;;;;;;24.83;3.85;;;32.60;44.10;;;;;;5068641;28;20017;-60
2023/09/19 03:18:13;;;;;;;18.58;3.50;;;32.40;44.00;;;;;;5077646;28;20021;-63
2023/09/19 03:20:39;;;;;;;10.65;3.03;;;32.40;44.00;;;;;;5073882;28;20095;-64
2023/09/19 03:23:06;;;;;;;12.73;3.20;;;32.40;44.80;;;;;;5073399;28;20051;-62
2023/09/19 03:25:35;;;;;;;20.05;2.85;;;32.50;44.90;;;;;;5072430;28;20479;-63
2023/09/19 03:28:05;;;;;;;12.65;3.03;;;32.40;44.60;;;;;;5068412;28;20465;-65
2023/09/19 03:30:33;;;;;;;14.52;2.90;;;32.40;44.50;;;;;;5071578;28;20108;-63
2023/09/19 03:33:04;;;;;;;11.55;3.20;;;32.50;44.90;;;;;;5071514;28;20051;-61
2023/09/19 03:35:32;;;;;;;16.42;3.03;;;32.40;45.20;;;;;;5071883;28;20389;-64
2023/09/19 03:37:59;;;;;;;15.48;3.10;;;32.40;45.40;;;;;;5071680;28;20061;-64
2023/09/19 03:40:25;;;;;;;10.43;2.95;;;32.40;45.70;;;;;;5074450;28;20380;-60
2023/09/19 03:42:52;;;;;;;20.02;3.75;;;32.30;45.30;;;;;;5077541;28;20032;-58
2023/09/19 03:45:18;;;;;;;27.98;3.85;;;32.30;45.60;;;;;;5070295;28;20025;-56
2023/09/19 03:47:47;;;;;;;28.23;3.95;;;32.30;45.40;;;;;;5068479;28;20073;-60
2023/09/19 03:50:17;;;;;;;20.77;3.13;;;32.30;45.60;;;;;;5074121;28;20501;-61
2023/09/19 03:52:44;;;;;;;19.52;3.42;;;32.20;46.90;;;;;;5058303;28;20491;-62
2023/09/19 03:55:11;;;;;;;30.00;3.95;;;32.10;46.80;;;;;;5075703;28;20020;-62
2023/09/19 03:57:38;;;;;;;20.17;3.65;;;32.10;46.80;;;;;;5074110;28;20009;-61
2023/09/19 04:00:11;;;;;;;15.88;4.10;;;32.00;46.80;;;;;;5064226;28;20017;-61
2023/09/19 04:02:38;;;;;;;16.30;3.45;;;31.90;46.70;;;;;;5071499;28;20050;-65
2023/09/19 04:05:05;;;;;;;17.45;4.00;;;31.80;47.20;;;;;;5057298;28;20027;-62
2023/09/19 04:07:32;;;;;;;16.15;4.45;;;31.60;47.50;;;;;;5076166;28;20016;-63
2023/09/19 04:09:58;;;;;;;19.08;5.90;;;31.60;48.00;;;;;;5068616;28;20016;-61
2023/09/19 04:12:24;;;;;;;34.38;6.10;;;31.40;47.60;;;;;;5069146;28;20065;-60
2023/09/19 04:14:51;;;;;;;21.55;5.28;;;31.40;48.30;;;;;;5072869;28;20031;-62
2023/09/19 04:17:18;;;;;;;31.65;12.15;;;31.30;52.00;;;;;;5074891;28;20020;-62
2023/09/19 04:19:45;;;;;;;18.00;4.90;;;31.30;56.10;;;;;;5076673;28;20037;-61
2023/09/19 04:22:12;;;;;;;13.82;4.63;;;31.40;61.20;;;;;;5074808;28;20062;-60
2023/09/19 04:24:39;;;;;;;14.15;4.72;;;31.40;63.00;;;;;;5071083;28;20025;-61
2023/09/19 04:27:07;;;;;;;20.02;5.35;;;31.40;64.00;;;;;;5071185;28;20039;-63
2023/09/19 04:29:33;;;;;;;14.20;4.75;;;31.30;64.90;;;;;;5071061;28;20004;-61
2023/09/19 04:32:00;;;;;;;14.82;4.75;;;31.40;65.50;;;;;;5063712;28;20388;-59
2023/09/19 04:34:27;;;;;;;13.35;4.45;;;31.30;65.40;;;;;;5075615;28;20017;-62
2023/09/19 04:36:53;;;;;;;19.98;4.68;;;31.40;64.60;;;;;;5075221;28;20017;-64
2023/09/19 04:39:20;;;;;;;19.70;4.65;;;31.20;57.60;;;;;;5074214;28;20027;-61
2023/09/19 04:41:47;;;;;;;24.77;5.47;;;31.20;55.80;;;;;;5069330;28;20400;-61
2023/09/19 04:44:14;;;;;;;29.60;5.05;;;31.10;53.80;;;;;;5078251;28;20178;-63
2023/09/19 04:46:40;;;;;;;23.17;5.45;;;31.10;52.90;;;;;;5075747;28;20031;-68
2023/09/19 04:49:07;;;;;;;39.33;5.93;;;31.10;51.80;;;;;;5070966;28;20021;-65
2023/09/19 04:51:36;;;;;;;28.38;5.20;;;31.10;51.30;;;;;;5067031;28;20016;-60
2023/09/19 04:54:02;;;;;;;27.20;4.97;;;31.00;51.00;;;;;;5065471;28;20107;-62
2023/09/19 04:56:29;;;;;;;20.08;4.97;;;31.00;52.00;;;;;;5077302;28;20012;-60
2023/09/19 04:58:56;;;;;;;22.23;4.90;;;31.00;52.60;;;;;;5071597;28;20361;-61
2023/09/19 05:01:22;;;;;;;21.70;5.07;;;30.90;52.10;;;;;;5064820;28;20021;-62
2023/09/19 05:03:52;;;;;;;17.60;4.43;;;30.90;52.30;;;;;;5066782;28;20061;-60
2023/09/19 05:06:21;;;;;;;25.65;4.53;;;30.90;51.20;;;;;;5071008;28;20044;-56
2023/09/19 05:08:52;;;;;;;32.17;4.68;;;31.10;50.60;;;;;;5071662;28;20031;-57
2023/09/19 05:11:21;;;;;;;24.08;4.38;;;31.60;50.40;;;;;;5067900;28;20059;-55
2023/09/19 05:13:49;;;;;;;24.88;4.32;;;32.30;49.50;;;;;;5067808;28;20063;-50
2023/09/19 05:16:16;;;;;;;23.58;3.50;;;32.50;48.20;;;;;;5062766;28;20041;-63
2023/09/19 05:18:43;;;;;;;8.38;3.20;;;32.40;46.10;;;;;;5074989;28;20017;-58
2023/09/19 05:21:09;;;;;;;39.92;5.47;;;32.30;45.60;;;;;;5070771;28;20032;-61
2023/09/19 05:23:36;;;;;;;14.75;3.67;;;32.70;46.00;;;;;;5067409;28;20028;-62
2023/09/19 05:26:03;;;;;;;12.95;3.40;;;32.70;45.70;;;;;;5065958;28;20021;-59
2023/09/19 05:28:30;;;;;;;18.88;3.53;;;32.60;45.10;;;;;;5067824;28;20021;-63
2023/09/19 05:30:57;;;;;;;16.75;3.20;;;32.60;44.60;;;;;;5066954;28;20115;-60
2023/09/19 05:33:24;;;;;;;16.20;3.22;;;32.80;44.20;;;;;;5071916;28;20019;-62
2023/09/19 05:35:50;;;;;;;9.52;2.85;;;32.80;43.00;;;;;;5076035;28;20021;-62
2023/09/19 05:38:18;;;;;;;15.00;2.75;;;32.50;42.40;;;;;;5066598;28;20023;-64
2023/09/19 05:40:46;;;;;;;29.05;3.45;;;32.50;42.80;;;;;;5074001;28;20054;-66
2023/09/19 05:43:14;;;;;;;14.68;3.38;;;32.50;43.10;;;;;;5072450;28;20019;-63
2023/09/19 05:45:41;;;;;;;11.63;2.78;;;32.40;43.10;;;;;;5072223;28;20031;-63
2023/09/19 05:48:09;;;;;;;16.58;3.35;;;32.40;43.50;;;;;;5077026;28;20408;-65
2023/09/19 05:50:36;;;;;;;11.57;3.03;;;32.30;43.90;;;;;;5052699;28;20025;-60
2023/09/19 05:53:04;;;;;;;14.38;3.20;;;32.20;43.70;;;;;;5069331;28;20013;-63
2023/09/19 05:55:30;;;;;;;14.02;2.92;;;32.10;43.70;;;;;;5071579;28;20021;-62
2023/09/19 05:57:57;;;;;;;15.27;3.10;;;32.10;43.60;;;;;;5085560;28;20022;-62
2023/09/19 06:00:27;;;;;;;10.35;2.95;;;32.00;43.40;;;;;;5072625;28;20009;-64
2023/09/19 06:02:57;;;;;;;16.30;5.55;;;31.90;42.80;;;;;;5080973;28;20052;-64
2023/09/19 06:05:26;;;;;;;9.77;4.53;;;31.90;43.10;;;;;;5055871;28;20051;-64
2023/09/19 06:07:54;;;;;;;18.83;9.68;;;31.80;42.50;;;;;;5071221;28;20027;-61
2023/09/19 06:10:20;;;;;;;9.93;2.50;;;31.60;42.40;;;;;;5074978;28;20028;-62
2023/09/19 06:12:48;;;;;;;7.50;2.60;;;31.60;42.40;;;;;;5069993;28;20092;-63
2023/09/19 06:15:15;;;;;;;8.45;2.70;;;31.50;42.80;;;;;;5071630;28;20066;-65
2023/09/19 06:17:56;;;;;;;6.78;2.78;;;31.40;43.00;;;;;;5069702;28;20050;-63
2023/09/19 06:20:25;;;;;;;11.13;2.30;;;31.30;43.10;;;;;;5076098;28;20024;-65
2023/09/19 06:22:51;;;;;;;6.00;2.60;;;31.30;42.80;;;;;;5067597;28;20032;-63
2023/09/19 06:25:21;;;;;;;9.63;3.03;;;31.20;42.90;;;;;;5072331;28;20035;-64
2023/09/19 06:27:55;;;;;;;9.98;2.40;;;31.30;42.90;;;;;;5074117;28;20016;-63
2023/09/19 06:30:24;;;;;;;10.20;2.70;;;31.20;42.60;;;;;;5076144;28;20102;-64
2023/09/19 06:32:55;;;;;;;5.60;2.17;;;31.10;42.80;;;;;;5051445;28;20103;-63
2023/09/19 06:35:22;;;;;;;11.00;2.30;;;31.00;42.50;;;;;;5071067;28;20008;-64
2023/09/19 06:37:49;;;;;;;5.97;2.38;;;30.90;42.20;;;;;;5053419;28;20021;-60
2023/09/19 06:40:16;;;;;;;9.75;2.30;;;30.90;42.40;;;;;;5076766;28;20027;-63
2023/09/19 06:42:50;;;;;;;11.95;2.50;;;30.90;42.80;;;;;;5080154;28;20103;-64
2023/09/19 06:45:19;;;;;;;8.02;2.50;;;30.90;42.10;;;;;;5073571;28;20033;-64
2023/09/19 06:47:50;;;;;;;10.23;2.42;;;30.90;41.50;;;;;;5056467;28;20013;-63
2023/09/19 06:50:22;;;;;;;8.35;2.00;;;30.90;41.60;;;;;;5074280;28;20020;-63
2023/09/19 06:52:51;;;;;;;6.97;1.80;;;30.60;41.40;;;;;;5074733;28;20023;-62
2023/09/19 06:55:19;;;;;;;12.02;1.98;;;30.60;41.40;;;;;;5072023;28;20023;-64
2023/09/19 06:57:47;;;;;;;4.63;1.70;;;30.50;41.20;;;;;;5073809;28;20028;-64
2023/09/19 07:00:22;;;;;;;8.18;2.17;;;30.60;42.10;;;;;;5069722;28;20028;-61
2023/09/19 07:03:11;;;;;;;13.07;2.37;;;30.50;42.00;;;;;;5071627;28;20376;-58
2023/09/19 07:05:39;;;;;;;11.05;2.42;;;30.30;42.50;;;;;;5071784;28;20012;-62
2023/09/19 07:08:06;;;;;;;11.80;2.78;;;30.30;42.70;;;;;;5078365;28;20016;-59
2023/09/19 07:10:33;;;;;;;10.18;2.10;;;30.20;43.20;;;;;;5073200;28;20391;-65
2023/09/19 07:13:00;;;;;;;7.28;2.40;;;29.90;44.00;;;;;;5079785;28;21072;-62
2023/09/19 07:15:29;;;;;;;7.80;2.00;;;29.70;44.40;;;;;;5077062;28;20869;-65
2023/09/19 07:17:56;;;;;;;9.32;2.70;;;29.60;44.70;;;;;;5072118;28;20877;-64
2023/09/19 07:20:27;;;;;;;10.68;2.55;;;29.60;44.60;;;;;;5072511;28;20016;-66
2023/09/19 07:22:59;;;;;;;10.68;2.60;;;29.50;45.30;;;;;;5069804;28;20473;-65
2023/09/19 07:25:26;;;;;;;6.88;2.30;;;29.50;45.40;;;;;;5070372;28;20116;-63
2023/09/19 07:27:54;;;;;;;6.93;2.00;;;29.40;45.50;;;;;;5071595;28;20537;-64
2023/09/19 07:30:21;;;;;;;4.53;1.88;;;29.50;45.30;;;;;;5075360;28;20381;-63
2023/09/19 07:32:48;;;;;;;5.43;2.15;;;29.40;45.60;;;;;;5074707;28;20019;-60
2023/09/19 07:35:15;;;;;;;10.00;2.22;;;29.20;45.60;;;;;;5072411;28;20073;-63
2023/09/19 07:37:41;;;;;;;6.90;1.90;;;29.10;45.80;;;;;;5074188;28;20162;-62
2023/09/19 07:40:11;;;;;;;5.40;1.90;;;29.00;46.00;;;;;;5078787;28;20020;-64
2023/09/19 07:42:40;;;;;;;8.13;2.20;;;28.90;45.50;;;;;;5065571;28;20041;-62
2023/09/19 07:45:08;;;;;;;8.32;2.38;;;29.10;45.60;;;;;;5069950;28;20020;-62
2023/09/19 07:47:36;;;;;;;7.32;2.60;;;29.00;45.70;;;;;;5076675;28;20473;-64
2023/09/19 07:50:02;;;;;;;127.20;7.85;;;28.80;45.60;;;;;;5073634;28;20023;-64
2023/09/19 07:52:29;;;;;;;108.30;6.35;;;28.90;45.30;;;;;;5051954;28;20020;-64
2023/09/19 07:54:57;;;;;;;16.58;3.05;;;28.90;45.20;;;;;;5076617;28;20021;-64
2023/09/19 07:57:24;;;;;;;10.43;2.38;;;28.90;45.00;;;;;;5080305;28;20012;-64
2023/09/19 07:59:51;;;;;;;7.85;2.38;;;28.90;44.90;;;;;;5070463;28;20005;-62
2023/09/19 08:02:18;;;;;;;5.70;2.42;;;28.90;44.90;;;;;;5061517;28;20028;-63
2023/09/19 08:04:48;;;;;;;8.90;2.72;;;28.90;44.70;;;;;;5061760;28;20074;-61
2023/09/19 08:07:16;;;;;;;6.72;2.10;;;28.90;44.80;;;;;;5066464;28;20028;-62
2023/09/19 08:09:46;;;;;;;7.72;2.08;;;28.90;44.50;;;;;;5071011;28;20429;-65
2023/09/19 08:12:12;;;;;;;5.93;2.22;;;28.80;44.60;;;;;;5076268;28;20119;-63
2023/09/19 08:14:41;;;;;;;6.07;2.10;;;28.70;44.80;;;;;;5071001;28;20024;-64
2023/09/19 08:17:10;;;;;;;6.07;2.00;;;28.70;45.00;;;;;;5069066;28;20016;-64
2023/09/19 08:19:40;;;;;;;13.98;2.28;;;28.60;45.00;;;;;;5067676;28;20019;-61
2023/09/19 08:22:10;;;;;;;5.85;2.85;;;28.50;45.10;;;;;;5070179;28;20016;-62
2023/09/19 08:24:36;;;;;;;6.38;2.22;;;28.60;45.50;;;;;;5049228;28;20016;-64
2023/09/19 08:27:07;;;;;;;8.77;2.50;;;28.50;45.40;;;;;;5068982;28;20023;-63
2023/09/19 08:29:35;;;;;;;6.53;2.70;;;28.50;44.70;;;;;;5070962;28;20535;-63
2023/09/19 08:32:01;;;;;;;6.95;2.25;;;28.50;45.00;;;;;;5074596;28;20024;-64
2023/09/19 08:34:27;;;;;;;9.20;2.60;;;28.50;44.40;;;;;;5069999;28;20468;-65
2023/09/19 08:36:58;;;;;;;4.05;2.00;;;28.40;44.40;;;;;;5072704;28;20013;-66
2023/09/19 08:39:25;;;;;;;9.00;2.55;;;28.20;43.90;;;;;;5080123;28;20062;-61
2023/09/19 08:42:01;;;;;;;6.63;2.03;;;28.30;44.20;;;;;;5075092;28;20016;-66
2023/09/19 08:44:31;;;;;;;11.23;2.65;;;28.20;43.90;;;;;;5065384;28;20021;-66
2023/09/19 08:47:14;;;;;;;245.20;11.20;;;28.10;43.50;;;;;;5078310;28;20017;-64
2023/09/19 08:50:14;;;;;;;3.33;1.95;;;28.10;43.70;;;;;;5070176;28;20499;-64
2023/09/19 08:52:46;;;;;;;8.98;2.63;;;28.00;43.70;;;;;;5047393;28;20504;-63
2023/09/19 08:55:20;;;;;;;5.32;2.13;;;27.90;44.10;;;;;;5077824;28;20389;-64
2023/09/19 08:57:52;;;;;;;5.70;2.13;;;27.80;43.80;;;;;;5082570;28;20141;-62
2023/09/19 09:00:21;;;;;;;6.45;2.08;;;27.70;44.00;;;;;;5070458;28;20066;-64
2023/09/19 09:02:49;;;;;;;5.25;2.10;;;27.60;43.60;;;;;;5070393;28;20108;-64
2023/09/19 09:05:22;;;;;;;4.95;2.00;;;27.60;43.80;;;;;;5070793;28;20047;-65
2023/09/19 09:07:51;;;;;;;7.70;2.35;;;27.60;43.90;;;;;;5068091;28;20506;-59
2023/09/19 09:10:22;;;;;;;10.65;3.05;;;27.70;43.40;;;;;;5074714;28;20139;-64
2023/09/19 09:12:55;;;;;;;4.93;3.08;;;27.70;43.70;;;;;;5069132;28;20342;-62
2023/09/19 09:15:23;;;;;;;13.20;10.20;;;27.70;43.90;;;;;;5070433;28;20085;-63
2023/09/19 09:17:52;;;;;;;11.65;9.57;;;27.60;44.20;;;;;;5074711;28;20116;-61
2023/09/19 09:20:19;;;;;;;12.23;11.05;;;27.60;44.40;;;;;;5073980;28;20042;-64
2023/09/19 09:22:54;;;;;;;13.20;12.10;;;27.50;44.90;;;;;;5074187;28;20043;-62
2023/09/19 09:25:23;;;;;;;4.03;2.67;;;27.50;44.50;;;;;;5081034;28;20134;-64
2023/09/19 09:28:03;;;;;;;7.13;2.00;;;27.40;45.00;;;;;;5083486;28;20053;-63
2023/09/19 09:30:34;;;;;;;4.93;1.90;;;27.30;44.70;;;;;;5082456;28;20480;-65
2023/09/19 09:33:13;;;;;;;7.47;2.00;;;27.30;44.70;;;;;;5074502;28;20046;-64
2023/09/19 09:36:00;;;;;;;6.50;2.30;;;27.30;44.90;;;;;;5082415;28;20039;-64
2023/09/19 09:38:33;;;;;;;;;;;27.30;44.60;;;;;;5070995;28;20136;-67
2023/09/19 09:41:01;;;;;;;5.43;2.10;;;27.30;44.90;;;;;;5068860;28;20280;-61
2023/09/19 09:43:39;;;;;;;6.68;2.45;;;27.30;45.10;;;;;;5081445;28;20407;-64
2023/09/19 09:49:39;;;;;;;4.82;2.30;;;27.00;45.00;;;;;;5072954;28;20127;-67
2023/09/19 09:52:18;;;;;;;5.85;2.45;;;27.00;45.80;;;;;;5068652;28;20066;-62
2023/09/19 09:55:05;;;;;;;3.88;1.70;;;27.00;44.80;;;;;;5074276;28;20044;-61
2023/09/19 09:57:33;;;;;;;6.85;2.15;;;27.00;44.80;;;;;;5058543;28;20091;-64
2023/09/19 10:02:40;;;;;;;3.00;1.70;;;27.00;44.30;;;;;;5070447;28;20048;-63
2023/09/19 10:05:22;;;;;;;6.15;2.00;;;26.90;44.10;;;;;;5068388;28;20069;-63
2023/09/19 10:08:00;;;;;;;6.00;1.77;;;27.00;44.60;;;;;;5075572;28;20132;-63
2023/09/19 10:10:43;;;;;;;5.32;2.00;;;26.90;44.60;;;;;;5072121;28;20423;-63
2023/09/19 10:13:18;;;;;;;5.38;2.13;;;27.00;44.90;;;;;;5075879;28;20038;-62
2023/09/19 10:15:51;;;;;;;4.75;1.95;;;27.00;44.40;;;;;;5071551;28;20043;-61
2023/09/19 10:18:22;;;;;;;3.35;2.17;;;26.90;44.80;;;;;;5079095;28;20058;-63
2023/09/19 10:20:50;;;;;;;3.35;2.08;;;26.90;44.90;;;;;;5080266;28;20158;-63
2023/09/19 10:23:25;;;;;;;7.28;2.20;;;26.70;44.80;;;;;;5081835;28;20087;-64
2023/09/19 10:25:53;;;;;;;3.70;2.22;;;26.70;45.30;;;;;;5082840;28;20092;-65
2023/09/19 10:28:23;;;;;;;4.28;1.88;;;26.60;45.20;;;;;;5079054;28;20070;-62
2023/09/19 10:30:52;;;;;;;3.03;1.98;;;26.60;45.20;;;;;;5068122;28;20107;-61
2023/09/19 10:33:20;;;;;;;6.20;2.22;;;26.50;45.10;;;;;;5077413;28;20543;-65
2023/09/19 10:35:49;;;;;;;3.15;1.95;;;26.50;45.30;;;;;;5070394;28;20037;-66
2023/09/19 10:38:20;;;;;;;5.35;2.08;;;26.40;45.40;;;;;;5077065;28;20468;-64
2023/09/19 10:40:50;;;;;;;4.85;2.22;;;26.30;45.70;;;;;;5077939;28;20064;-65
2023/09/19 10:43:18;;;;;;;7.25;2.20;;;26.30;45.60;;;;;;5072148;28;20045;-58
2023/09/19 10:45:49;;;;;;;6.35;2.20;;;26.30;45.60;;;;;;5072433;28;20052;-58
2023/09/19 10:48:19;;;;;;;10.10;2.33;;;26.20;46.40;;;;;;5059077;28;20050;-62
2023/09/19 10:51:23;;;;;;;53.22;3.70;;;26.20;46.00;;;;;;5072398;28;20058;-64
2023/09/19 10:53:59;;;;;;;10.73;2.33;;;26.30;45.60;;;;;;5070931;28;20124;-61
2023/09/19 10:56:37;;;;;;;10.05;2.47;;;26.40;45.60;;;;;;5075866;28;20538;-64
2023/09/19 10:59:12;;;;;;;9.52;2.40;;;26.40;46.20;;;;;;5069359;28;20519;-62
2023/09/19 11:01:53;;;;;;;8.10;2.28;;;26.30;46.00;;;;;;5067955;28;20069;-62
2023/09/19 11:04:36;;;;;;;6.25;2.65;;;26.30;46.00;;;;;;5069171;28;20059;-62
2023/09/19 11:07:15;;;;;;;8.30;2.20;;;26.30;46.20;;;;;;5070143;28;20132;-60
2023/09/19 11:10:03;;;;;;;5.25;2.20;;;26.20;46.10;;;;;;5069654;28;20527;-63
2023/09/19 11:14:59;;;;;;;7.75;2.40;;;26.10;46.20;;;;;;5069570;28;20503;-65
2023/09/19 11:17:45;;;;;;;4.03;2.40;;;26.10;46.40;;;;;;5076149;28;20064;-64
2023/09/19 11:25:34;;;;;;;8.45;2.20;;;26.10;46.50;;;;;;5066309;28;20168;-63
2023/09/19 11:28:12;;;;;;;10.80;2.40;;;26.10;46.60;;;;;;5072211;28;20041;-63
2023/09/19 11:30:40;;;;;;;3.05;2.10;;;26.10;46.50;;;;;;5075028;28;20076;-64
2023/09/19 11:33:36;;;;;;;8.95;2.20;;;26.00;46.70;;;;;;5077047;28;20136;-63
2023/09/19 11:36:11;;;;;;;5.53;2.15;;;26.00;46.80;;;;;;5071514;28;20147;-61
2023/09/19 11:38:44;;;;;;;4.83;1.80;;;25.90;46.70;;;;;;5075151;28;20066;-63
2023/09/19 11:41:26;;;;;;;4.80;2.30;;;25.80;46.50;;;;;;5071034;28;20053;-66
2023/09/19 11:44:10;;;;;;;3.95;2.50;;;25.80;47.20;;;;;;5072598;28;20526;-67
2023/09/19 11:46:52;;;;;;;7.72;2.20;;;25.80;47.40;;;;;;5074477;28;20115;-58
2023/09/19 11:49:32;;;;;;;4.70;2.08;;;25.70;47.80;;;;;;5064616;28;20062;-70
2023/09/19 11:52:08;;;;;;;9.07;2.50;;;25.70;47.70;;;;;;5064434;28;20113;-63
2023/09/19 11:54:39;;;;;;;9.18;2.67;;;25.70;47.60;;;;;;5068864;28;20042;-67
2023/09/19 11:57:07;;;;;;;9.52;2.47;;;25.80;47.60;;;;;;5069087;28;20038;-62
2023/09/19 11:59:36;;;;;;;4.68;2.25;;;25.60;48.30;;;;;;5069292;28;20054;-67
2023/09/19 12:02:08;;;;;;;10.65;2.60;;;25.60;48.60;;;;;;5077096;28;20098;-61
2023/09/19 12:04:43;;;;;;;5.95;2.65;;;25.70;48.50;;;;;;5070491;28;20493;-64
2023/09/19 12:07:18;;;;;;;9.15;2.38;;;25.80;48.80;;;;;;5068713;28;20081;-63
2023/09/19 12:09:48;;;;;;;7.60;2.80;;;25.80;48.70;;;;;;5031679;28;20053;-64
2023/09/19 12:12:28;;;;;;;8.88;2.70;;;25.80;49.00;;;;;;5068032;28;20059;-60
2023/09/19 12:14:58;;;;;;;9.77;2.72;;;25.60;48.70;;;;;;5073320;28;20054;-65
2023/09/19 12:17:47;;;;;;;9.23;2.80;;;25.60;49.40;;;;;;5051655;28;20053;-61
2023/09/19 12:20:14;;;;;;;8.85;2.40;;;25.60;49.90;;;;;;5069821;28;20061;-64
2023/09/19 12:22:46;;;;;;;4.82;2.50;;;25.40;49.40;;;;;;5067915;28;20058;-63
2023/09/19 12:25:13;;;;;;;8.63;3.15;;;25.40;49.30;;;;;;5071033;28;20058;-64
2023/09/19 12:27:44;;;;;;;10.27;2.90;;;25.30;49.30;;;;;;5072865;28;20092;-61
2023/09/19 12:30:14;;;;;;;16.05;3.13;;;25.20;49.90;;;;;;5073118;28;20098;-65
2023/09/19 12:32:41;;;;;;;12.80;3.13;;;25.20;50.30;;;;;;5072118;28;20405;-64
2023/09/19 12:35:10;;;;;;;7.85;2.95;;;25.10;50.40;;;;;;5071677;28;20446;-63
2023/09/19 12:37:43;;;;;;;15.10;2.70;;;25.10;51.10;;;;;;5072327;28;20044;-64
2023/09/19 12:40:22;;;;;;;11.88;2.92;;;25.10;51.10;;;;;;5071265;28;20043;-63
2023/09/19 12:42:49;;;;;;;12.15;2.70;;;25.10;51.30;;;;;;5068551;28;20538;-64
2023/09/19 12:45:17;;;;;;;18.85;3.85;;;25.20;51.20;;;;;;5071331;28;20053;-63
2023/09/19 12:48:21;;;;;;;10.30;3.17;;;25.10;50.90;;;;;;5068264;28;20512;-61
2023/09/19 12:51:12;;;;;;;17.35;3.17;;;25.20;51.10;;;;;;5072071;28;20598;-62
2023/09/19 12:53:44;;;;;;;18.45;3.42;;;25.20;51.00;;;;;;5078693;28;20055;-62
2023/09/19 12:56:15;;;;;;;20.75;3.45;;;25.20;51.10;;;;;;5067199;28;20048;-61
2023/09/19 12:59:03;;;;;;;27.42;4.78;;;25.10;51.30;;;;;;5075154;28;20568;-64
2023/09/19 13:01:29;;;;;;;16.33;3.95;;;25.00;51.50;;;;;;5070639;28;20043;-63
2023/09/19 13:04:19;;;;;;;16.77;3.58;;;25.00;51.80;;;;;;5071036;28;20489;-65
2023/09/19 13:06:48;;;;;;;23.05;3.97;;;24.90;51.80;;;;;;5072190;28;20049;-66
2023/09/19 13:09:22;;;;;;;18.55;3.90;;;24.90;51.50;;;;;;5073721;28;20059;-60
2023/09/19 13:11:50;;;;;;;16.98;3.90;;;24.80;51.90;;;;;;5070891;28;20091;-65
2023/09/19 13:14:23;;;;;;;18.55;3.70;;;24.80;52.40;;;;;;5073850;28;20054;-60